sensor_id;sensor_type;location;lat;lon;timestamp;temperature;humidity
7163;DHT22;3623;47.098;15.446;2022-07-17T00:00:00;18.60;99.90
7163;DHT22;3623;47.098;15.446;2022-07-17T00:02:27;18.50;99.90
7163;DHT22;3623;47.098;15.446;2022-07-17T00:04:55;18.40;99.90
7163;DHT22;3623;47.098;15.446;2022-07-17T00:07:22;18.40;99.90
7163;DHT22;3623;47.098;15.446;2022-07-17T00:09:50;18.40;99.90
7163;DHT22;3623;47.098;15.446;2022-07-17T00:12:17;18.30;99.90
7163;DHT22;3623;47.098;15.446;2022-07-17T00:14:45;18.20;99.90
7163;DHT22;3623;47.098;15.446;2022-07-17T00:17:12;18.20;99.90
7163;DHT22;3623;47.098;15.446;2022-07-17T00:19:40;18.20;99.90
7163;DHT22;3623;47.098;15.446;2022-07-17T00:22:07;18.10;99.90
7163;DHT22;3623;47.098;15.446;2022-07-17T00:24:34;18.10;99.90
7163;DHT22;3623;47.098;15.446;2022-07-17T00:27:03;17.80;99.90
7163;DHT22;3623;47.098;15.446;2022-07-17T00:29:30;17.60;99.90
7163;DHT22;3623;47.098;15.446;2022-07-17T00:31:57;17.60;99.90
7163;DHT22;3623;47.098;15.446;2022-07-17T00:34:24;17.50;99.90
7163;DHT22;3623;47.098;15.446;2022-07-17T00:36:51;17.20;99.90
7163;DHT22;3623;47.098;15.446;2022-07-17T00:39:19;17.50;99.90
7163;DHT22;3623;47.098;15.446;2022-07-17T00:41:46;17.50;99.90
7163;DHT22;3623;47.098;15.446;2022-07-17T00:44:14;17.50;99.90
7163;DHT22;3623;47.098;15.446;2022-07-17T00:46:42;17.50;99.90
7163;DHT22;3623;47.098;15.446;2022-07-17T00:49:10;17.50;99.90
7163;DHT22;3623;47.098;15.446;2022-07-17T00:51:38;17.50;99.90
7163;DHT22;3623;47.098;15.446;2022-07-17T00:54:06;17.50;99.90
7163;DHT22;3623;47.098;15.446;2022-07-17T00:56:34;17.50;99.90
7163;DHT22;3623;47.098;15.446;2022-07-17T00:59:03;17.40;99.90
7163;DHT22;3623;47.098;15.446;2022-07-17T01:01:32;17.40;99.90
7163;DHT22;3623;47.098;15.446;2022-07-17T01:03:59;17.20;99.90
7163;DHT22;3623;47.098;15.446;2022-07-17T01:06:26;17.20;99.90
7163;DHT22;3623;47.098;15.446;2022-07-17T01:08:53;17.10;99.90
7163;DHT22;3623;47.098;15.446;2022-07-17T01:11:21;17.00;99.90
7163;DHT22;3623;47.098;15.446;2022-07-17T01:13:48;17.00;99.90
7163;DHT22;3623;47.098;15.446;2022-07-17T01:16:16;16.80;99.90
7163;DHT22;3623;47.098;15.446;2022-07-17T01:18:45;16.70;99.90
7163;DHT22;3623;47.098;15.446;2022-07-17T01:21:13;16.60;99.90
7163;DHT22;3623;47.098;15.446;2022-07-17T01:23:40;16.60;99.90
7163;DHT22;3623;47.098;15.446;2022-07-17T01:26:08;16.60;99.90
7163;DHT22;3623;47.098;15.446;2022-07-17T01:28:35;16.60;99.90
7163;DHT22;3623;47.098;15.446;2022-07-17T01:31:02;16.60;99.90
7163;DHT22;3623;47.098;15.446;2022-07-17T01:33:29;16.60;99.90
7163;DHT22;3623;47.098;15.446;2022-07-17T01:35:57;16.60;99.90
7163;DHT22;3623;47.098;15.446;2022-07-17T01:38:25;16.50;99.90
7163;DHT22;3623;47.098;15.446;2022-07-17T01:40:52;16.50;99.90
7163;DHT22;3623;47.098;15.446;2022-07-17T01:43:20;16.40;99.90
7163;DHT22;3623;47.098;15.446;2022-07-17T01:45:47;16.30;99.90
7163;DHT22;3623;47.098;15.446;2022-07-17T01:48:26;16.20;99.90
7163;DHT22;3623;47.098;15.446;2022-07-17T01:50:55;16.20;99.90
7163;DHT22;3623;47.098;15.446;2022-07-17T01:53:22;16.10;99.90
7163;DHT22;3623;47.098;15.446;2022-07-17T01:55:51;16.20;99.90
7163;DHT22;3623;47.098;15.446;2022-07-17T01:58:18;16.20;99.90
7163;DHT22;3623;47.098;15.446;2022-07-17T02:00:45;16.30;99.90
7163;DHT22;3623;47.098;15.446;2022-07-17T02:03:12;16.40;99.90
7163;DHT22;3623;47.098;15.446;2022-07-17T02:05:42;16.50;99.90
7163;DHT22;3623;47.098;15.446;2022-07-17T02:08:10;16.50;99.90
7163;DHT22;3623;47.098;15.446;2022-07-17T02:10:37;16.40;99.90
7163;DHT22;3623;47.098;15.446;2022-07-17T02:13:06;16.40;99.90
7163;DHT22;3623;47.098;15.446;2022-07-17T02:15:33;16.30;99.90
7163;DHT22;3623;47.098;15.446;2022-07-17T02:18:00;16.10;99.90
7163;DHT22;3623;47.098;15.446;2022-07-17T02:20:27;16.00;99.90
7163;DHT22;3623;47.098;15.446;2022-07-17T02:22:55;16.00;99.90
7163;DHT22;3623;47.098;15.446;2022-07-17T02:25:22;15.90;99.90
7163;DHT22;3623;47.098;15.446;2022-07-17T02:27:49;15.80;99.90
7163;DHT22;3623;47.098;15.446;2022-07-17T02:30:18;15.80;99.90
7163;DHT22;3623;47.098;15.446;2022-07-17T02:32:46;15.80;99.90
7163;DHT22;3623;47.098;15.446;2022-07-17T02:35:13;15.70;99.90
7163;DHT22;3623;47.098;15.446;2022-07-17T02:37:41;15.80;99.90
7163;DHT22;3623;47.098;15.446;2022-07-17T02:40:10;15.80;99.90
7163;DHT22;3623;47.098;15.446;2022-07-17T02:42:37;15.80;99.90
7163;DHT22;3623;47.098;15.446;2022-07-17T02:45:06;15.80;99.90
7163;DHT22;3623;47.098;15.446;2022-07-17T02:47:35;15.80;99.90
7163;DHT22;3623;47.098;15.446;2022-07-17T02:50:05;15.80;99.90
7163;DHT22;3623;47.098;15.446;2022-07-17T02:52:32;15.70;99.90
7163;DHT22;3623;47.098;15.446;2022-07-17T02:54:59;15.70;99.90
7163;DHT22;3623;47.098;15.446;2022-07-17T02:57:26;15.70;99.90
7163;DHT22;3623;47.098;15.446;2022-07-17T02:59:53;15.80;99.90
7163;DHT22;3623;47.098;15.446;2022-07-17T03:02:21;15.80;99.90
7163;DHT22;3623;47.098;15.446;2022-07-17T03:04:50;15.80;99.90
7163;DHT22;3623;47.098;15.446;2022-07-17T03:07:17;15.80;99.90
7163;DHT22;3623;47.098;15.446;2022-07-17T03:09:44;15.70;99.90
7163;DHT22;3623;47.098;15.446;2022-07-17T03:12:12;15.70;99.90
7163;DHT22;3623;47.098;15.446;2022-07-17T03:14:39;15.70;99.90
7163;DHT22;3623;47.098;15.446;2022-07-17T03:17:06;15.80;99.90
7163;DHT22;3623;47.098;15.446;2022-07-17T03:19:34;15.80;99.90
7163;DHT22;3623;47.098;15.446;2022-07-17T03:22:02;15.70;99.90
7163;DHT22;3623;47.098;15.446;2022-07-17T03:24:29;15.70;99.90
7163;DHT22;3623;47.098;15.446;2022-07-17T03:26:58;15.70;99.90
7163;DHT22;3623;47.098;15.446;2022-07-17T03:29:25;15.70;99.90
7163;DHT22;3623;47.098;15.446;2022-07-17T03:31:52;15.70;99.90
7163;DHT22;3623;47.098;15.446;2022-07-17T03:34:19;15.50;99.90
7163;DHT22;3623;47.098;15.446;2022-07-17T03:36:46;15.50;99.90
7163;DHT22;3623;47.098;15.446;2022-07-17T03:39:15;15.60;99.90
7163;DHT22;3623;47.098;15.446;2022-07-17T03:41:42;15.60;99.90
7163;DHT22;3623;47.098;15.446;2022-07-17T03:44:09;15.60;99.90
7163;DHT22;3623;47.098;15.446;2022-07-17T03:46:37;15.60;99.90
7163;DHT22;3623;47.098;15.446;2022-07-17T03:49:04;15.60;99.90
7163;DHT22;3623;47.098;15.446;2022-07-17T03:51:31;15.70;99.90
7163;DHT22;3623;47.098;15.446;2022-07-17T03:53:58;15.60;99.90
7163;DHT22;3623;47.098;15.446;2022-07-17T03:56:27;15.60;99.90
7163;DHT22;3623;47.098;15.446;2022-07-17T03:58:54;15.70;99.90
7163;DHT22;3623;47.098;15.446;2022-07-17T04:01:21;15.60;99.90
7163;DHT22;3623;47.098;15.446;2022-07-17T04:03:48;15.60;99.90
7163;DHT22;3623;47.098;15.446;2022-07-17T04:06:16;15.60;99.90
7163;DHT22;3623;47.098;15.446;2022-07-17T04:08:43;15.60;99.90
7163;DHT22;3623;47.098;15.446;2022-07-17T04:11:10;15.60;99.90
7163;DHT22;3623;47.098;15.446;2022-07-17T04:13:39;15.60;99.90
7163;DHT22;3623;47.098;15.446;2022-07-17T04:16:06;15.70;99.90
7163;DHT22;3623;47.098;15.446;2022-07-17T04:18:35;15.80;99.90
7163;DHT22;3623;47.098;15.446;2022-07-17T04:21:04;15.80;99.90
7163;DHT22;3623;47.098;15.446;2022-07-17T04:23:31;15.80;99.90
7163;DHT22;3623;47.098;15.446;2022-07-17T04:25:59;15.80;99.90
7163;DHT22;3623;47.098;15.446;2022-07-17T04:28:26;15.80;99.90
7163;DHT22;3623;47.098;15.446;2022-07-17T04:30:56;15.80;99.90
7163;DHT22;3623;47.098;15.446;2022-07-17T04:33:23;15.80;99.90
7163;DHT22;3623;47.098;15.446;2022-07-17T04:35:51;15.90;99.90
7163;DHT22;3623;47.098;15.446;2022-07-17T04:38:18;15.90;99.90
7163;DHT22;3623;47.098;15.446;2022-07-17T04:40:46;15.80;99.90
7163;DHT22;3623;47.098;15.446;2022-07-17T04:43:13;15.80;99.90
7163;DHT22;3623;47.098;15.446;2022-07-17T04:45:40;15.80;99.90
7163;DHT22;3623;47.098;15.446;2022-07-17T04:48:08;16.00;99.90
7163;DHT22;3623;47.098;15.446;2022-07-17T04:50:36;16.10;99.90
7163;DHT22;3623;47.098;15.446;2022-07-17T04:53:03;16.20;99.90
7163;DHT22;3623;47.098;15.446;2022-07-17T04:55:30;16.30;99.90
7163;DHT22;3623;47.098;15.446;2022-07-17T04:57:58;16.40;99.90
7163;DHT22;3623;47.098;15.446;2022-07-17T05:00:25;16.60;99.90
7163;DHT22;3623;47.098;15.446;2022-07-17T05:02:52;16.80;99.90
7163;DHT22;3623;47.098;15.446;2022-07-17T05:05:21;16.90;99.90
7163;DHT22;3623;47.098;15.446;2022-07-17T05:07:48;16.90;99.90
7163;DHT22;3623;47.098;15.446;2022-07-17T05:10:16;16.90;99.90
7163;DHT22;3623;47.098;15.446;2022-07-17T05:12:43;17.00;99.90
7163;DHT22;3623;47.098;15.446;2022-07-17T05:15:10;17.00;99.90
7163;DHT22;3623;47.098;15.446;2022-07-17T05:17:38;17.10;99.90
7163;DHT22;3623;47.098;15.446;2022-07-17T05:20:07;17.10;99.90
7163;DHT22;3623;47.098;15.446;2022-07-17T05:22:35;17.10;99.90
7163;DHT22;3623;47.098;15.446;2022-07-17T05:25:03;17.10;99.90
7163;DHT22;3623;47.098;15.446;2022-07-17T05:27:31;17.20;99.90
7163;DHT22;3623;47.098;15.446;2022-07-17T05:29:58;17.10;99.90
7163;DHT22;3623;47.098;15.446;2022-07-17T05:32:25;17.10;99.90
7163;DHT22;3623;47.098;15.446;2022-07-17T05:34:52;17.10;99.90
7163;DHT22;3623;47.098;15.446;2022-07-17T05:37:19;17.10;99.90
7163;DHT22;3623;47.098;15.446;2022-07-17T05:39:49;17.10;99.90
7163;DHT22;3623;47.098;15.446;2022-07-17T05:42:16;17.10;99.90
7163;DHT22;3623;47.098;15.446;2022-07-17T05:44:43;17.20;99.90
7163;DHT22;3623;47.098;15.446;2022-07-17T05:47:10;17.20;99.90
7163;DHT22;3623;47.098;15.446;2022-07-17T05:49:37;17.40;99.90
7163;DHT22;3623;47.098;15.446;2022-07-17T05:52:05;17.40;99.90
7163;DHT22;3623;47.098;15.446;2022-07-17T05:54:32;17.40;99.90
7163;DHT22;3623;47.098;15.446;2022-07-17T05:57:01;17.50;99.90
7163;DHT22;3623;47.098;15.446;2022-07-17T05:59:29;17.40;99.90
7163;DHT22;3623;47.098;15.446;2022-07-17T06:01:57;17.40;99.90
7163;DHT22;3623;47.098;15.446;2022-07-17T06:04:24;17.50;99.90
7163;DHT22;3623;47.098;15.446;2022-07-17T06:06:51;17.60;99.90
7163;DHT22;3623;47.098;15.446;2022-07-17T06:09:19;17.50;99.90
7163;DHT22;3623;47.098;15.446;2022-07-17T06:11:46;17.50;99.90
7163;DHT22;3623;47.098;15.446;2022-07-17T06:14:15;17.60;99.90
7163;DHT22;3623;47.098;15.446;2022-07-17T06:16:42;17.70;99.90
7163;DHT22;3623;47.098;15.446;2022-07-17T06:19:09;17.70;99.90
7163;DHT22;3623;47.098;15.446;2022-07-17T06:21:37;17.80;99.90
7163;DHT22;3623;47.098;15.446;2022-07-17T06:24:04;17.70;99.90
7163;DHT22;3623;47.098;15.446;2022-07-17T06:26:31;17.80;99.90
7163;DHT22;3623;47.098;15.446;2022-07-17T06:28:58;17.90;99.90
7163;DHT22;3623;47.098;15.446;2022-07-17T06:31:27;17.80;99.90
7163;DHT22;3623;47.098;15.446;2022-07-17T06:33:54;17.70;99.90
7163;DHT22;3623;47.098;15.446;2022-07-17T06:36:21;17.70;99.90
7163;DHT22;3623;47.098;15.446;2022-07-17T06:38:48;17.80;99.90
7163;DHT22;3623;47.098;15.446;2022-07-17T06:41:16;17.90;99.90
7163;DHT22;3623;47.098;15.446;2022-07-17T06:43:43;17.80;99.90
7163;DHT22;3623;47.098;15.446;2022-07-17T06:46:10;17.90;99.90
7163;DHT22;3623;47.098;15.446;2022-07-17T06:48:39;18.00;99.90
7163;DHT22;3623;47.098;15.446;2022-07-17T06:51:06;18.10;99.90
7163;DHT22;3623;47.098;15.446;2022-07-17T06:53:33;18.20;99.90
7163;DHT22;3623;47.098;15.446;2022-07-17T06:56:00;18.30;99.90
7163;DHT22;3623;47.098;15.446;2022-07-17T06:58:27;18.30;99.90
7163;DHT22;3623;47.098;15.446;2022-07-17T07:00:54;18.30;99.90
7163;DHT22;3623;47.098;15.446;2022-07-17T07:03:22;18.30;99.90
7163;DHT22;3623;47.098;15.446;2022-07-17T07:05:50;18.20;99.90
7163;DHT22;3623;47.098;15.446;2022-07-17T07:08:18;18.30;99.90
7163;DHT22;3623;47.098;15.446;2022-07-17T07:10:45;18.40;99.90
7163;DHT22;3623;47.098;15.446;2022-07-17T07:13:12;18.60;99.90
7163;DHT22;3623;47.098;15.446;2022-07-17T07:15:39;18.90;99.90
7163;DHT22;3623;47.098;15.446;2022-07-17T07:18:06;19.10;99.90
7163;DHT22;3623;47.098;15.446;2022-07-17T07:20:34;19.50;99.90
7163;DHT22;3623;47.098;15.446;2022-07-17T07:23:02;19.50;99.90
7163;DHT22;3623;47.098;15.446;2022-07-17T07:25:30;19.60;99.90
7163;DHT22;3623;47.098;15.446;2022-07-17T07:27:57;19.80;99.90
7163;DHT22;3623;47.098;15.446;2022-07-17T07:30:25;20.00;99.90
7163;DHT22;3623;47.098;15.446;2022-07-17T07:32:53;20.00;99.90
7163;DHT22;3623;47.098;15.446;2022-07-17T07:35:20;20.40;99.90
7163;DHT22;3623;47.098;15.446;2022-07-17T07:37:48;20.70;99.90
7163;DHT22;3623;47.098;15.446;2022-07-17T07:40:17;20.80;99.90
7163;DHT22;3623;47.098;15.446;2022-07-17T07:42:44;20.50;99.90
7163;DHT22;3623;47.098;15.446;2022-07-17T07:45:11;21.00;99.90
7163;DHT22;3623;47.098;15.446;2022-07-17T07:47:43;21.50;99.90
7163;DHT22;3623;47.098;15.446;2022-07-17T07:50:12;22.30;99.90
7163;DHT22;3623;47.098;15.446;2022-07-17T07:52:40;22.50;99.90
7163;DHT22;3623;47.098;15.446;2022-07-17T07:55:08;22.80;99.90
7163;DHT22;3623;47.098;15.446;2022-07-17T07:57:37;22.40;98.60
7163;DHT22;3623;47.098;15.446;2022-07-17T08:00:07;22.10;99.90
7163;DHT22;3623;47.098;15.446;2022-07-17T08:02:35;22.10;99.90
7163;DHT22;3623;47.098;15.446;2022-07-17T08:05:02;22.40;99.90
7163;DHT22;3623;47.098;15.446;2022-07-17T08:07:30;22.30;99.00
7163;DHT22;3623;47.098;15.446;2022-07-17T08:09:58;22.00;99.90
7163;DHT22;3623;47.098;15.446;2022-07-17T08:12:25;21.70;99.90
7163;DHT22;3623;47.098;15.446;2022-07-17T08:14:54;21.40;99.90
7163;DHT22;3623;47.098;15.446;2022-07-17T08:17:21;21.10;99.90
7163;DHT22;3623;47.098;15.446;2022-07-17T08:19:48;20.90;99.90
7163;DHT22;3623;47.098;15.446;2022-07-17T08:22:15;20.70;99.90
7163;DHT22;3623;47.098;15.446;2022-07-17T08:24:42;20.60;99.90
7163;DHT22;3623;47.098;15.446;2022-07-17T08:27:10;20.50;99.90
7163;DHT22;3623;47.098;15.446;2022-07-17T08:29:37;20.30;99.90
7163;DHT22;3623;47.098;15.446;2022-07-17T08:32:07;20.40;99.90
7163;DHT22;3623;47.098;15.446;2022-07-17T08:34:34;20.60;99.90
7163;DHT22;3623;47.098;15.446;2022-07-17T08:37:01;20.70;99.90
7163;DHT22;3623;47.098;15.446;2022-07-17T08:39:29;20.80;99.90
7163;DHT22;3623;47.098;15.446;2022-07-17T08:41:56;21.10;99.90
7163;DHT22;3623;47.098;15.446;2022-07-17T08:44:23;21.20;99.90
7163;DHT22;3623;47.098;15.446;2022-07-17T08:46:50;21.30;99.90
7163;DHT22;3623;47.098;15.446;2022-07-17T08:49:21;21.20;99.90
7163;DHT22;3623;47.098;15.446;2022-07-17T08:51:49;21.20;99.90
7163;DHT22;3623;47.098;15.446;2022-07-17T08:54:16;21.40;99.90
7163;DHT22;3623;47.098;15.446;2022-07-17T08:56:43;21.60;99.90
7163;DHT22;3623;47.098;15.446;2022-07-17T08:59:11;21.60;99.90
7163;DHT22;3623;47.098;15.446;2022-07-17T09:01:38;21.60;99.90
7163;DHT22;3623;47.098;15.446;2022-07-17T09:04:05;21.30;99.90
7163;DHT22;3623;47.098;15.446;2022-07-17T09:06:36;21.00;99.90
7163;DHT22;3623;47.098;15.446;2022-07-17T09:09:06;21.00;99.90
7163;DHT22;3623;47.098;15.446;2022-07-17T09:11:46;21.20;99.90
7163;DHT22;3623;47.098;15.446;2022-07-17T09:14:14;21.40;99.90
7163;DHT22;3623;47.098;15.446;2022-07-17T09:16:49;21.60;99.90
7163;DHT22;3623;47.098;15.446;2022-07-17T09:19:27;21.80;99.90
7163;DHT22;3623;47.098;15.446;2022-07-17T09:22:11;21.70;99.90
7163;DHT22;3623;47.098;15.446;2022-07-17T09:24:47;21.50;99.90
7163;DHT22;3623;47.098;15.446;2022-07-17T09:27:27;21.50;99.90
7163;DHT22;3623;47.098;15.446;2022-07-17T09:29:56;21.60;99.90
7163;DHT22;3623;47.098;15.446;2022-07-17T09:32:26;21.70;99.90
7163;DHT22;3623;47.098;15.446;2022-07-17T09:34:55;21.60;99.90
7163;DHT22;3623;47.098;15.446;2022-07-17T09:37:25;21.60;99.90
7163;DHT22;3623;47.098;15.446;2022-07-17T09:39:53;21.60;99.90
7163;DHT22;3623;47.098;15.446;2022-07-17T09:42:25;21.60;99.90
7163;DHT22;3623;47.098;15.446;2022-07-17T09:44:56;21.60;99.90
7163;DHT22;3623;47.098;15.446;2022-07-17T09:47:24;21.80;99.90
7163;DHT22;3623;47.098;15.446;2022-07-17T09:49:53;21.90;99.90
7163;DHT22;3623;47.098;15.446;2022-07-17T09:52:24;22.00;99.90
7163;DHT22;3623;47.098;15.446;2022-07-17T09:54:53;21.90;99.90
7163;DHT22;3623;47.098;15.446;2022-07-17T09:57:20;21.90;99.90
7163;DHT22;3623;47.098;15.446;2022-07-17T09:59:53;22.00;99.90
7163;DHT22;3623;47.098;15.446;2022-07-17T10:02:21;22.00;99.50
7163;DHT22;3623;47.098;15.446;2022-07-17T10:04:51;22.10;99.90
7163;DHT22;3623;47.098;15.446;2022-07-17T10:07:18;22.50;99.90
7163;DHT22;3623;47.098;15.446;2022-07-17T10:09:47;22.70;99.90
7163;DHT22;3623;47.098;15.446;2022-07-17T10:12:15;22.80;99.20
7163;DHT22;3623;47.098;15.446;2022-07-17T10:14:46;22.90;99.50
7163;DHT22;3623;47.098;15.446;2022-07-17T10:17:19;23.10;97.60
7163;DHT22;3623;47.098;15.446;2022-07-17T10:19:48;23.10;99.40
7163;DHT22;3623;47.098;15.446;2022-07-17T10:22:16;23.50;98.90
7163;DHT22;3623;47.098;15.446;2022-07-17T10:24:50;24.00;99.90
7163;DHT22;3623;47.098;15.446;2022-07-17T10:27:22;24.00;96.50
7163;DHT22;3623;47.098;15.446;2022-07-17T10:30:02;24.10;97.30
7163;DHT22;3623;47.098;15.446;2022-07-17T10:32:30;24.30;97.20
7163;DHT22;3623;47.098;15.446;2022-07-17T10:35:00;24.70;94.90
7163;DHT22;3623;47.098;15.446;2022-07-17T10:37:31;25.50;94.80
7163;DHT22;3623;47.098;15.446;2022-07-17T10:40:04;26.40;93.40
7163;DHT22;3623;47.098;15.446;2022-07-17T10:42:52;27.20;94.40
7163;DHT22;3623;47.098;15.446;2022-07-17T10:45:20;27.70;90.90
7163;DHT22;3623;47.098;15.446;2022-07-17T10:47:57;29.00;90.80
7163;DHT22;3623;47.098;15.446;2022-07-17T10:50:28;29.10;86.60
7163;DHT22;3623;47.098;15.446;2022-07-17T10:53:01;29.10;84.20
7163;DHT22;3623;47.098;15.446;2022-07-17T10:55:31;29.20;86.00
7163;DHT22;3623;47.098;15.446;2022-07-17T10:57:58;29.70;85.10
7163;DHT22;3623;47.098;15.446;2022-07-17T11:00:26;29.60;82.90
7163;DHT22;3623;47.098;15.446;2022-07-17T11:02:53;29.40;84.70
7163;DHT22;3623;47.098;15.446;2022-07-17T11:05:21;30.10;81.40
7163;DHT22;3623;47.098;15.446;2022-07-17T11:07:56;29.40;84.80
7163;DHT22;3623;47.098;15.446;2022-07-17T11:10:26;29.50;85.00
7163;DHT22;3623;47.098;15.446;2022-07-17T11:13:07;29.40;85.50
7163;DHT22;3623;47.098;15.446;2022-07-17T11:15:39;28.60;80.40
7163;DHT22;3623;47.098;15.446;2022-07-17T11:18:11;29.10;89.10
7163;DHT22;3623;47.098;15.446;2022-07-17T11:20:50;28.80;82.70
7163;DHT22;3623;47.098;15.446;2022-07-17T11:23:18;29.60;83.00
7163;DHT22;3623;47.098;15.446;2022-07-17T11:25:56;29.70;84.80
7163;DHT22;3623;47.098;15.446;2022-07-17T11:28:43;29.90;82.70
7163;DHT22;3623;47.098;15.446;2022-07-17T11:31:19;30.60;78.10
7163;DHT22;3623;47.098;15.446;2022-07-17T11:33:48;30.40;79.50
7163;DHT22;3623;47.098;15.446;2022-07-17T11:36:25;30.30;80.60
7163;DHT22;3623;47.098;15.446;2022-07-17T11:38:54;30.40;80.40
7163;DHT22;3623;47.098;15.446;2022-07-17T11:41:21;31.10;80.50
7163;DHT22;3623;47.098;15.446;2022-07-17T11:43:58;31.30;79.80
7163;DHT22;3623;47.098;15.446;2022-07-17T11:46:28;30.80;78.80
7163;DHT22;3623;47.098;15.446;2022-07-17T11:48:56;30.90;77.90
7163;DHT22;3623;47.098;15.446;2022-07-17T11:51:36;30.80;81.10
7163;DHT22;3623;47.098;15.446;2022-07-17T11:54:05;30.20;79.10
7163;DHT22;3623;47.098;15.446;2022-07-17T11:56:33;30.40;76.50
7163;DHT22;3623;47.098;15.446;2022-07-17T11:59:03;30.40;75.40
7163;DHT22;3623;47.098;15.446;2022-07-17T12:01:39;30.30;77.40
7163;DHT22;3623;47.098;15.446;2022-07-17T12:04:07;30.70;78.90
7163;DHT22;3623;47.098;15.446;2022-07-17T12:06:35;30.80;78.80
7163;DHT22;3623;47.098;15.446;2022-07-17T12:09:03;31.00;74.70
7163;DHT22;3623;47.098;15.446;2022-07-17T12:11:30;31.80;73.20
7163;DHT22;3623;47.098;15.446;2022-07-17T12:14:05;31.90;71.40
7163;DHT22;3623;47.098;15.446;2022-07-17T12:16:36;31.10;75.30
7163;DHT22;3623;47.098;15.446;2022-07-17T12:19:09;31.10;77.30
7163;DHT22;3623;47.098;15.446;2022-07-17T12:21:51;30.90;72.80
7163;DHT22;3623;47.098;15.446;2022-07-17T12:24:23;30.60;74.90
7163;DHT22;3623;47.098;15.446;2022-07-17T12:26:51;32.10;74.10
7163;DHT22;3623;47.098;15.446;2022-07-17T12:29:20;32.50;76.50
7163;DHT22;3623;47.098;15.446;2022-07-17T12:31:47;32.50;71.20
7163;DHT22;3623;47.098;15.446;2022-07-17T12:34:16;31.80;72.50
7163;DHT22;3623;47.098;15.446;2022-07-17T12:36:43;32.30;75.20
7163;DHT22;3623;47.098;15.446;2022-07-17T12:39:10;32.90;70.50
7163;DHT22;3623;47.098;15.446;2022-07-17T12:41:37;33.30;70.50
7163;DHT22;3623;47.098;15.446;2022-07-17T12:44:05;33.60;69.70
7163;DHT22;3623;47.098;15.446;2022-07-17T12:46:34;33.60;69.60
7163;DHT22;3623;47.098;15.446;2022-07-17T12:49:01;33.40;70.80
7163;DHT22;3623;47.098;15.446;2022-07-17T12:51:28;33.70;68.90
7163;DHT22;3623;47.098;15.446;2022-07-17T12:53:56;33.10;69.90
7163;DHT22;3623;47.098;15.446;2022-07-17T12:56:24;33.90;70.40
7163;DHT22;3623;47.098;15.446;2022-07-17T12:58:52;33.90;67.10
7163;DHT22;3623;47.098;15.446;2022-07-17T13:01:20;33.00;70.40
7163;DHT22;3623;47.098;15.446;2022-07-17T13:03:48;33.30;69.90
7163;DHT22;3623;47.098;15.446;2022-07-17T13:06:15;33.90;71.10
7163;DHT22;3623;47.098;15.446;2022-07-17T13:08:43;34.10;67.90
7163;DHT22;3623;47.098;15.446;2022-07-17T13:11:10;33.60;67.90
7163;DHT22;3623;47.098;15.446;2022-07-17T13:13:37;34.10;69.60
7163;DHT22;3623;47.098;15.446;2022-07-17T13:16:05;34.60;70.00
7163;DHT22;3623;47.098;15.446;2022-07-17T13:18:32;34.90;66.10
7163;DHT22;3623;47.098;15.446;2022-07-17T13:21:01;34.10;67.50
7163;DHT22;3623;47.098;15.446;2022-07-17T13:23:28;34.00;66.50
7163;DHT22;3623;47.098;15.446;2022-07-17T13:25:55;33.30;66.90
7163;DHT22;3623;47.098;15.446;2022-07-17T13:28:22;32.40;68.90
7163;DHT22;3623;47.098;15.446;2022-07-17T13:30:50;33.00;68.90
7163;DHT22;3623;47.098;15.446;2022-07-17T13:33:17;33.30;69.80
7163;DHT22;3623;47.098;15.446;2022-07-17T13:35:44;33.90;68.00
7163;DHT22;3623;47.098;15.446;2022-07-17T13:38:13;33.90;67.80
7163;DHT22;3623;47.098;15.446;2022-07-17T13:40:40;33.10;66.20
7163;DHT22;3623;47.098;15.446;2022-07-17T13:43:08;32.90;70.10
7163;DHT22;3623;47.098;15.446;2022-07-17T13:45:35;33.40;66.50
7163;DHT22;3623;47.098;15.446;2022-07-17T13:48:04;33.80;65.90
7163;DHT22;3623;47.098;15.446;2022-07-17T13:50:32;33.90;67.10
7163;DHT22;3623;47.098;15.446;2022-07-17T13:53:00;34.10;67.90
7163;DHT22;3623;47.098;15.446;2022-07-17T13:55:28;34.20;64.00
7163;DHT22;3623;47.098;15.446;2022-07-17T13:57:55;34.30;63.40
7163;DHT22;3623;47.098;15.446;2022-07-17T14:00:23;33.30;64.90
7163;DHT22;3623;47.098;15.446;2022-07-17T14:02:50;32.90;67.40
7163;DHT22;3623;47.098;15.446;2022-07-17T14:05:17;32.50;64.90
7163;DHT22;3623;47.098;15.446;2022-07-17T14:07:44;33.00;66.10
7163;DHT22;3623;47.098;15.446;2022-07-17T14:10:12;33.40;65.20
7163;DHT22;3623;47.098;15.446;2022-07-17T14:12:40;32.60;65.50
7163;DHT22;3623;47.098;15.446;2022-07-17T14:15:08;31.40;66.90
7163;DHT22;3623;47.098;15.446;2022-07-17T14:17:36;30.60;70.40
7163;DHT22;3623;47.098;15.446;2022-07-17T14:20:04;31.60;72.40
7163;DHT22;3623;47.098;15.446;2022-07-17T14:22:31;32.40;68.20
7163;DHT22;3623;47.098;15.446;2022-07-17T14:24:58;32.30;67.60
7163;DHT22;3623;47.098;15.446;2022-07-17T14:27:25;32.20;68.70
7163;DHT22;3623;47.098;15.446;2022-07-17T14:29:54;31.70;71.40
7163;DHT22;3623;47.098;15.446;2022-07-17T14:32:22;31.50;71.40
7163;DHT22;3623;47.098;15.446;2022-07-17T14:34:49;30.90;69.20
7163;DHT22;3623;47.098;15.446;2022-07-17T14:37:16;29.80;71.90
7163;DHT22;3623;47.098;15.446;2022-07-17T14:39:43;29.50;70.40
7163;DHT22;3623;47.098;15.446;2022-07-17T14:42:11;29.80;73.10
7163;DHT22;3623;47.098;15.446;2022-07-17T14:44:38;29.80;74.00
7163;DHT22;3623;47.098;15.446;2022-07-17T14:47:07;30.30;75.40
7163;DHT22;3623;47.098;15.446;2022-07-17T14:49:34;29.50;73.20
7163;DHT22;3623;47.098;15.446;2022-07-17T14:52:02;29.00;77.80
7163;DHT22;3623;47.098;15.446;2022-07-17T14:54:29;28.80;77.10
7163;DHT22;3623;47.098;15.446;2022-07-17T14:56:56;29.20;76.00
7163;DHT22;3623;47.098;15.446;2022-07-17T14:59:25;29.80;77.90
7163;DHT22;3623;47.098;15.446;2022-07-17T15:01:52;29.70;76.60
7163;DHT22;3623;47.098;15.446;2022-07-17T15:04:21;29.40;74.80
7163;DHT22;3623;47.098;15.446;2022-07-17T15:06:48;29.00;75.40
7163;DHT22;3623;47.098;15.446;2022-07-17T15:09:15;28.20;77.10
7163;DHT22;3623;47.098;15.446;2022-07-17T15:11:42;27.90;78.20
7163;DHT22;3623;47.098;15.446;2022-07-17T15:14:10;28.00;78.90
7163;DHT22;3623;47.098;15.446;2022-07-17T15:16:37;27.70;79.70
7163;DHT22;3623;47.098;15.446;2022-07-17T15:19:04;27.70;80.00
7163;DHT22;3623;47.098;15.446;2022-07-17T15:21:33;27.70;79.40
7163;DHT22;3623;47.098;15.446;2022-07-17T15:24:00;27.80;81.40
7163;DHT22;3623;47.098;15.446;2022-07-17T15:26:27;27.90;79.60
7163;DHT22;3623;47.098;15.446;2022-07-17T15:28:54;27.90;81.00
7163;DHT22;3623;47.098;15.446;2022-07-17T15:31:22;28.10;81.00
7163;DHT22;3623;47.098;15.446;2022-07-17T15:33:49;28.20;80.60
7163;DHT22;3623;47.098;15.446;2022-07-17T15:36:16;28.50;81.10
7163;DHT22;3623;47.098;15.446;2022-07-17T15:38:54;28.60;80.20
7163;DHT22;3623;47.098;15.446;2022-07-17T15:41:22;27.90;80.20
7163;DHT22;3623;47.098;15.446;2022-07-17T15:43:49;27.50;80.90
7163;DHT22;3623;47.098;15.446;2022-07-17T15:46:16;27.20;81.50
7163;DHT22;3623;47.098;15.446;2022-07-17T15:48:44;27.30;82.20
7163;DHT22;3623;47.098;15.446;2022-07-17T15:51:12;27.20;83.00